Time;durP1;ratioP1;P1;durP2;ratioP2;P2;SDS_P1;SDS_P2;PMS_P1;PMS_P2;Temp;Humidity;BMP_temperature;BMP_pressure;BME280_temperature;BME280_humidity;BME280_pressure;Samples;Min_cycle;Max_cycle;Signal;HPM_P1;HPM_P2
2023/01/27 00:00:54;;;;;;;5.50;4.97;;;13.60;64.20;;;;;;4193063;28;20055;-60
2023/01/27 00:03:35;;;;;;;5.95;5.45;;;13.50;63.80;;;;;;4194187;28;20063;-60
2023/01/27 00:06:16;;;;;;;7.13;5.10;;;13.40;64.50;;;;;;4194569;28;20383;-60
2023/01/27 00:08:57;;;;;;;5.63;5.15;;;13.40;66.20;;;;;;4194295;28;20046;-60
2023/01/27 00:14:37;;;;;;;6.15;5.55;;;13.40;64.20;;;;;;4177757;28;20465;-60
2023/01/27 00:17:18;;;;;;;6.27;5.67;;;13.30;65.60;;;;;;4178034;28;20048;-60
2023/01/27 00:19:59;;;;;;;6.07;4.97;;;13.30;66.00;;;;;;4192367;28;20286;-60
2023/01/27 00:25:40;;;;;;;3.67;3.05;;;13.20;65.60;;;;;;4190575;28;20059;-60
2023/01/27 00:28:24;;;;;;;6.13;3.92;;;13.10;66.10;;;;;;4193492;28;20414;-60
2023/01/27 00:34:07;;;;;;;4.15;3.03;;;13.10;68.70;;;;;;4147996;28;20504;-60
2023/01/27 00:36:49;;;;;;;3.75;3.40;;;13.30;68.80;;;;;;4193472;28;20064;-60
2023/01/27 00:39:30;;;;;;;4.53;2.42;;;13.50;69.30;;;;;;4192802;28;20051;-60
2023/01/27 00:42:11;;;;;;;3.03;2.83;;;13.80;69.30;;;;;;4192912;28;20051;-60
2023/01/27 00:47:53;;;;;;;3.05;2.75;;;14.50;67.20;;;;;;4192067;28;20047;-59
2023/01/27 00:50:34;;;;;;;4.18;2.50;;;14.70;65.50;;;;;;4194263;28;20055;-59
2023/01/27 00:53:15;;;;;;;3.35;2.60;;;14.90;65.50;;;;;;4194065;28;20047;-60
2023/01/27 00:55:57;;;;;;;2.53;2.33;;;15.10;64.60;;;;;;4194194;28;20090;-60
2023/01/27 00:58:39;;;;;;;2.50;2.30;;;15.30;63.80;;;;;;4193800;28;20391;-60
2023/01/27 01:01:21;;;;;;;2.45;2.20;;;15.40;63.90;;;;;;4189157;28;20819;-60
2023/01/27 01:04:02;;;;;;;2.08;1.95;;;15.60;63.20;;;;;;4191256;28;20059;-60
2023/01/27 01:06:44;;;;;;;1.92;1.70;;;15.80;62.80;;;;;;4177033;28;20102;-60
2023/01/27 01:09:25;;;;;;;2.00;1.85;;;16.00;61.90;;;;;;4177275;28;20063;-60
2023/01/27 01:12:06;;;;;;;2.80;1.80;;;16.10;61.60;;;;;;4176216;28;20384;-60
2023/01/27 01:14:46;;;;;;;2.28;1.88;;;16.30;60.60;;;;;;4165473;28;20043;-60
2023/01/27 01:17:29;;;;;;;4.07;2.22;;;16.30;60.00;;;;;;4193572;28;20502;-60
2023/01/27 01:20:11;;;;;;;2.40;2.25;;;16.40;60.40;;;;;;4176600;28;20063;-60
2023/01/27 01:22:52;;;;;;;3.67;2.03;;;16.50;60.20;;;;;;4192437;28;20515;-60
2023/01/27 01:25:33;;;;;;;3.70;2.10;;;16.60;59.40;;;;;;4193476;28;20169;-60
2023/01/27 01:28:15;;;;;;;2.15;2.05;;;16.60;58.70;;;;;;4193005;28;20056;-60
2023/01/27 01:30:56;;;;;;;4.63;2.22;;;16.60;59.10;;;;;;4192730;28;20047;-61
2023/01/27 01:33:39;;;;;;;4.63;2.17;;;16.50;59.20;;;;;;4176433;28;20055;-60
2023/01/27 01:36:21;;;;;;;4.53;2.45;;;16.50;59.20;;;;;;4180704;28;20130;-60
2023/01/27 01:39:02;;;;;;;1.88;1.70;;;16.40;59.00;;;;;;4193327;28;20077;-60
2023/01/27 01:41:43;;;;;;;1.73;1.42;;;16.30;59.70;;;;;;4188913;28;20601;-60
2023/01/27 01:44:26;;;;;;;1.67;1.38;;;16.30;60.50;;;;;;4180286;28;20047;-61
2023/01/27 01:47:06;;;;;;;2.22;1.60;;;16.20;60.60;;;;;;4192349;28;20086;-60
2023/01/27 01:49:49;;;;;;;3.10;1.50;;;16.10;59.80;;;;;;4179133;28;20044;-60
2023/01/27 01:52:31;;;;;;;2.35;1.58;;;16.00;60.10;;;;;;4192466;28;20060;-60
2023/01/27 01:55:11;;;;;;;1.73;1.20;;;15.90;60.80;;;;;;4180280;28;20055;-60
2023/01/27 01:57:52;;;;;;;2.13;1.35;;;15.80;60.50;;;;;;4192796;28;20063;-60
2023/01/27 02:00:33;;;;;;;1.00;1.00;;;15.60;61.00;;;;;;4191421;28;20075;-60
2023/01/27 02:03:15;;;;;;;2.00;1.20;;;15.50;61.30;;;;;;4192768;28;20056;-60
2023/01/27 02:05:57;;;;;;;2.92;1.65;;;15.40;61.10;;;;;;4192971;28;20047;-60
2023/01/27 02:08:40;;;;;;;2.90;1.30;;;15.30;61.50;;;;;;4192569;28;20071;-60
2023/01/27 02:11:21;;;;;;;1.77;1.00;;;15.10;62.10;;;;;;4192575;28;20080;-60
2023/01/27 02:14:02;;;;;;;2.40;1.10;;;15.00;62.00;;;;;;4188540;28;20055;-60
2023/01/27 02:16:44;;;;;;;1.10;0.90;;;15.00;62.20;;;;;;4191926;28;20423;-60
2023/01/27 02:19:26;;;;;;;;;;;14.90;62.30;;;;;;4176862;28;20056;-60
2023/01/27 02:22:12;;;;;;;2.28;1.05;;;14.80;63.30;;;;;;4176107;28;19928;-61
2023/01/27 02:25:04;;;;;;;1.30;1.20;;;14.70;62.80;;;;;;4160760;28;20063;-60
2023/01/27 02:27:46;;;;;;;4.97;1.50;;;14.60;61.90;;;;;;4174831;28;21016;-61
2023/01/27 02:30:28;;;;;;;1.67;1.20;;;14.50;58.50;;;;;;4192315;28;20403;-60
2023/01/27 02:33:12;;;;;;;2.35;1.20;;;14.40;57.30;;;;;;4190384;28;20050;-60
2023/01/27 02:36:01;;;;;;;2.15;1.35;;;14.30;59.50;;;;;;4191674;28;20055;-60
2023/01/27 02:38:47;;;;;;;1.17;1.17;;;14.10;59.30;;;;;;4160274;28;20130;-60
2023/01/27 02:41:31;;;;;;;1.35;1.25;;;14.10;60.10;;;;;;4163835;28;20051;-61
2023/01/27 02:44:14;;;;;;;1.77;1.25;;;14.00;61.40;;;;;;4179703;28;20056;-60
2023/01/27 02:46:54;;;;;;;1.63;1.15;;;13.90;62.90;;;;;;4192036;28;20054;-61
2023/01/27 02:49:35;;;;;;;2.88;1.00;;;13.90;63.30;;;;;;4179188;28;20193;-60
2023/01/27 02:52:16;;;;;;;1.00;1.00;;;13.90;63.20;;;;;;4163171;28;20047;-60
2023/01/27 02:54:58;;;;;;;2.10;1.15;;;13.80;63.40;;;;;;4173558;28;20048;-60
2023/01/27 02:57:39;;;;;;;1.88;1.10;;;13.80;61.20;;;;;;4189379;28;20457;-60
2023/01/27 03:00:38;;;;;;;4.40;1.55;;;13.70;62.40;;;;;;4175222;28;20408;-60
2023/01/27 03:03:19;;;;;;;1.98;1.08;;;13.70;63.60;;;;;;4192446;28;20553;-60
2023/01/27 03:06:00;;;;;;;3.60;1.20;;;13.70;62.80;;;;;;4191388;28;20059;-60
2023/01/27 03:08:41;;;;;;;1.13;1.03;;;13.60;63.00;;;;;;4183091;28;20052;-60
2023/01/27 03:14:17;;;;;;;3.35;1.52;;;13.50;61.10;;;;;;4182199;28;20613;-60
2023/01/27 03:20:00;;;;;;;1.48;1.38;;;13.40;62.80;;;;;;4177585;28;20218;-60
2023/01/27 03:22:42;;;;;;;1.23;1.00;;;13.40;64.20;;;;;;4164632;28;20098;-60
2023/01/27 03:25:25;;;;;;;1.80;1.20;;;13.40;64.00;;;;;;4166046;28;20407;-60
2023/01/27 03:28:09;;;;;;;4.38;1.30;;;13.30;64.40;;;;;;4185618;28;20047;-60
2023/01/27 03:31:00;;;;;;;4.63;1.25;;;13.30;64.00;;;;;;4192558;28;20055;-59
2023/01/27 03:33:52;;;;;;;2.42;1.02;;;13.30;62.30;;;;;;4178234;28;20056;-60
2023/01/27 03:48:36;;;;;;;1.20;0.90;;;12.90;62.30;;;;;;4194986;28;20055;-60
2023/01/27 03:51:19;;;;;;;3.33;1.30;;;12.90;62.90;;;;;;4195117;28;20051;-60
2023/01/27 03:54:00;;;;;;;1.73;1.00;;;12.90;63.40;;;;;;4178361;28;20179;-60
2023/01/27 03:56:40;;;;;;;2.03;1.08;;;12.80;63.30;;;;;;4194710;28;20055;-60
2023/01/27 03:59:22;;;;;;;1.98;0.90;;;12.80;63.10;;;;;;4195125;28;20186;-60
2023/01/27 04:08:00;;;;;;;1.92;1.10;;;12.70;63.50;;;;;;4192077;28;20075;-62
2023/01/27 04:11:53;;;;;;;2.67;1.17;;;12.70;62.50;;;;;;4193395;28;20048;-60
2023/01/27 04:13:40;;;;;;;3.60;1.08;;;12.80;63.70;;;;;;4194306;28;20047;-60
2023/01/27 04:16:27;;;;;;;1.65;1.05;;;12.90;64.30;;;;;;4194483;28;20375;-59
2023/01/27 04:19:10;;;;;;;1.33;1.10;;;13.10;63.10;;;;;;4194640;28;20098;-59
2023/01/27 04:21:51;;;;;;;2.50;1.27;;;13.30;63.80;;;;;;4189869;28;20059;-60
2023/01/27 04:24:34;;;;;;;1.75;1.30;;;13.40;63.10;;;;;;4194071;28;20059;-60
2023/01/27 04:27:17;;;;;;;4.65;1.70;;;13.40;62.60;;;;;;4177418;28;20111;-60
2023/01/27 04:29:58;;;;;;;2.03;1.40;;;13.50;62.60;;;;;;4178569;28;20495;-59
2023/01/27 04:32:39;;;;;;;4.15;2.35;;;13.50;62.70;;;;;;4177986;28;20114;-59
2023/01/27 04:35:19;;;;;;;3.42;2.95;;;13.50;62.40;;;;;;4178283;28;20142;-60
2023/01/27 04:38:05;;;;;;;4.88;3.00;;;13.50;62.00;;;;;;4193674;28;20039;-60
2023/01/27 04:40:48;;;;;;;3.92;2.95;;;13.40;61.70;;;;;;4193970;28;20055;-59
2023/01/27 04:43:29;;;;;;;8.00;2.55;;;13.40;63.10;;;;;;4194076;28;20067;-59
2023/01/27 04:46:10;;;;;;;4.35;2.65;;;13.40;63.00;;;;;;4193574;28;20047;-60
2023/01/27 04:48:51;;;;;;;2.50;1.95;;;13.30;62.80;;;;;;4193776;28;20075;-59
2023/01/27 04:51:32;;;;;;;3.95;2.53;;;13.30;63.50;;;;;;4194257;28;20137;-60
2023/01/27 04:54:13;;;;;;;2.83;2.05;;;13.30;63.60;;;;;;4176994;28;20178;-60
2023/01/27 04:56:57;;;;;;;2.30;1.73;;;13.20;63.40;;;;;;4193468;28;20048;-59
2023/01/27 04:59:38;;;;;;;2.75;1.92;;;13.20;61.90;;;;;;4193925;28;20182;-60
2023/01/27 05:02:19;;;;;;;5.45;1.85;;;13.20;61.40;;;;;;4194267;28;20067;-60
2023/01/27 05:05:03;;;;;;;2.65;1.48;;;13.10;60.50;;;;;;4193775;28;20102;-60
2023/01/27 05:07:44;;;;;;;3.85;1.95;;;13.00;60.90;;;;;;4177010;28;20067;-60
2023/01/27 05:10:25;;;;;;;2.97;1.55;;;12.90;61.00;;;;;;4191189;28;20179;-60
2023/01/27 05:13:07;;;;;;;1.80;1.52;;;12.90;61.30;;;;;;4193981;28;20055;-60
2023/01/27 05:15:48;;;;;;;3.15;1.70;;;12.80;62.30;;;;;;4193529;28;20051;-60
2023/01/27 05:18:29;;;;;;;3.70;1.30;;;12.70;62.70;;;;;;4193249;28;20421;-60
2023/01/27 05:21:13;;;;;;;1.70;1.20;;;12.70;63.90;;;;;;4193196;28;20052;-60
2023/01/27 05:23:54;;;;;;;3.70;1.45;;;12.70;64.70;;;;;;4179400;28;20063;-59
2023/01/27 05:26:35;;;;;;;3.97;1.48;;;12.60;65.30;;;;;;4192930;28;20039;-60
2023/01/27 05:29:17;;;;;;;1.63;1.52;;;12.60;65.40;;;;;;4192646;28;20097;-59
2023/01/27 05:31:58;;;;;;;3.83;1.65;;;12.60;65.40;;;;;;4193152;28;20050;-60
2023/01/27 05:34:39;;;;;;;2.45;1.00;;;12.60;65.60;;;;;;4192125;28;20133;-60
2023/01/27 05:37:20;;;;;;;3.35;1.63;;;12.50;65.30;;;;;;4193579;28;20063;-60
2023/01/27 05:40:01;;;;;;;3.58;1.17;;;12.50;65.30;;;;;;4176858;28;20179;-60
2023/01/27 05:42:42;;;;;;;1.15;1.05;;;12.50;65.20;;;;;;4176868;28;20495;-59
2023/01/27 05:45:24;;;;;;;2.95;1.98;;;12.50;65.50;;;;;;4182935;28;20063;-60
2023/01/27 05:48:06;;;;;;;2.78;1.35;;;12.50;64.70;;;;;;4191086;28;20051;-59
2023/01/27 05:50:55;;;;;;;4.85;1.40;;;12.40;64.70;;;;;;4172187;28;20102;-60
2023/01/27 05:53:36;;;;;;;2.08;0.73;;;12.40;64.50;;;;;;4176172;28;20052;-60
2023/01/27 05:56:18;;;;;;;2.30;1.10;;;12.40;64.90;;;;;;4176134;28;20052;-59
2023/01/27 05:59:00;;;;;;;3.90;1.13;;;12.40;64.70;;;;;;4192215;28;20051;-59
2023/01/27 06:01:42;;;;;;;1.60;0.70;;;12.40;63.80;;;;;;4175973;28;20055;-59
2023/01/27 06:04:24;;;;;;;1.30;0.70;;;12.40;64.60;;;;;;4175829;28;20082;-60
2023/01/27 06:07:05;;;;;;;1.33;1.05;;;12.30;65.30;;;;;;4192427;28;20048;-60
2023/01/27 06:09:46;;;;;;;2.25;0.98;;;12.40;64.60;;;;;;4192497;28;20083;-60
2023/01/27 06:12:27;;;;;;;1.35;0.93;;;12.30;64.70;;;;;;4192640;28;20063;-59
2023/01/27 06:15:09;;;;;;;1.63;1.50;;;12.30;65.00;;;;;;4192686;28;20086;-59
2023/01/27 06:17:52;;;;;;;1.02;0.90;;;12.50;67.10;;;;;;4176306;28;20125;-60
2023/01/27 06:20:33;;;;;;;2.63;1.83;;;12.70;67.60;;;;;;4181431;28;20126;-59
2023/01/27 06:23:15;;;;;;;2.20;1.02;;;13.00;66.50;;;;;;4179348;28;20407;-60
2023/01/27 06:26:00;;;;;;;2.30;1.02;;;13.40;67.10;;;;;;4191996;28;20581;-60
2023/01/27 06:28:41;;;;;;;1.38;1.00;;;13.70;67.50;;;;;;4191477;28;20059;-60
2023/01/27 06:31:22;;;;;;;0.98;0.98;;;14.10;65.80;;;;;;4191731;28;20056;-60
2023/01/27 06:34:05;;;;;;;3.67;1.20;;;14.50;64.00;;;;;;4192342;28;20185;-60
2023/01/27 06:36:46;;;;;;;2.92;1.02;;;14.80;62.30;;;;;;4168224;28;20067;-60
2023/01/27 06:39:26;;;;;;;1.52;1.08;;;15.10;62.30;;;;;;4192485;28;20055;-60
2023/01/27 06:42:08;;;;;;;1.88;0.60;;;15.30;61.30;;;;;;4192355;28;20086;-60
2023/01/27 06:44:49;;;;;;;3.17;0.90;;;15.50;60.30;;;;;;4192539;28;20403;-60
2023/01/27 06:47:30;;;;;;;1.92;1.30;;;15.70;59.80;;;;;;4192206;28;20048;-60
2023/01/27 06:50:12;;;;;;;3.20;1.05;;;15.90;59.60;;;;;;4178314;28;20107;-60
2023/01/27 06:53:00;;;;;;;1.38;0.80;;;16.10;59.30;;;;;;4191449;28;20129;-60
2023/01/27 06:55:42;;;;;;;2.05;0.60;;;16.20;58.70;;;;;;4192577;28;20055;-60
2023/01/27 06:58:22;;;;;;;;;;;16.30;59.10;;;;;;4176686;28;20183;-59
2023/01/27 07:01:05;;;;;;;1.92;0.75;;;16.40;58.30;;;;;;4175714;28;19931;-60
2023/01/27 07:03:46;;;;;;;1.42;0.70;;;16.60;58.90;;;;;;4182024;28;20194;-59
2023/01/27 07:06:28;;;;;;;3.33;0.82;;;16.70;57.70;;;;;;4192356;28;20396;-59
2023/01/27 07:09:09;;;;;;;3.05;0.95;;;16.90;58.10;;;;;;4187022;28;20102;-59
2023/01/27 07:11:50;;;;;;;4.43;0.85;;;16.90;57.90;;;;;;4191850;28;20512;-59
2023/01/27 07:14:31;;;;;;;4.30;1.10;;;16.90;57.60;;;;;;4188410;28;20589;-59
2023/01/27 07:17:12;;;;;;;1.88;0.77;;;16.80;57.30;;;;;;4175684;28;20055;-59
2023/01/27 07:19:53;;;;;;;1.23;0.82;;;16.70;57.50;;;;;;4173342;28;20060;-60
2023/01/27 07:22:35;;;;;;;1.77;0.60;;;16.60;57.80;;;;;;4191334;28;20046;-59
2023/01/27 07:25:16;;;;;;;2.35;0.80;;;16.40;58.70;;;;;;4169717;28;20078;-60
2023/01/27 07:27:58;;;;;;;7.85;1.15;;;16.20;58.30;;;;;;4178843;28;20474;-60
2023/01/27 07:30:38;;;;;;;6.18;1.45;;;16.00;58.80;;;;;;4192007;28;20052;-59
2023/01/27 07:33:20;;;;;;;1.67;1.05;;;15.90;58.90;;;;;;4188794;28;20059;-59
2023/01/27 07:36:01;;;;;;;3.60;1.10;;;15.70;59.20;;;;;;4191322;28;20059;-59
2023/01/27 07:38:43;;;;;;;3.47;1.70;;;15.50;60.10;;;;;;4180560;28;20052;-60
2023/01/27 07:41:25;;;;;;;4.28;2.08;;;15.40;60.80;;;;;;4174747;28;20048;-59
2023/01/27 07:44:06;;;;;;;4.97;2.20;;;15.30;60.70;;;;;;4191726;28;20051;-60
2023/01/27 07:46:46;;;;;;;2.83;1.50;;;15.20;61.30;;;;;;4192267;28;20063;-59
2023/01/27 07:49:27;;;;;;;4.13;1.42;;;15.00;61.70;;;;;;4180698;28;20427;-59
2023/01/27 07:52:08;;;;;;;2.60;1.20;;;14.90;62.10;;;;;;4180248;28;20550;-59
2023/01/27 07:54:50;;;;;;;4.03;1.70;;;14.80;61.50;;;;;;4194389;28;20510;-60
2023/01/27 07:57:31;;;;;;;2.58;1.38;;;14.70;60.70;;;;;;4194614;28;20190;-60
2023/01/27 08:00:14;;;;;;;3.83;2.08;;;14.60;61.20;;;;;;4194336;28;20047;-60
2023/01/27 08:02:57;;;;;;;3.53;1.60;;;14.50;61.20;;;;;;4194102;28;20059;-59
2023/01/27 08:05:38;;;;;;;5.60;1.52;;;14.40;61.80;;;;;;4190239;28;20055;-59
2023/01/27 08:08:19;;;;;;;1.85;1.38;;;14.30;61.60;;;;;;4194147;28;20059;-59
2023/01/27 08:11:02;;;;;;;4.57;1.90;;;14.20;61.40;;;;;;4194070;28;20051;-60
2023/01/27 08:13:44;;;;;;;4.72;2.10;;;14.10;60.40;;;;;;4173492;28;20082;-60
2023/01/27 08:16:24;;;;;;;3.13;2.00;;;14.00;61.20;;;;;;4186809;28;20161;-59
2023/01/27 08:19:05;;;;;;;2.72;2.00;;;13.90;61.30;;;;;;4183178;28;20075;-60
2023/01/27 08:21:46;;;;;;;3.88;3.05;;;13.80;59.70;;;;;;4192455;28;20059;-59
2023/01/27 08:24:27;;;;;;;5.07;2.45;;;13.80;60.90;;;;;;4193932;28;20541;-60
2023/01/27 08:27:10;;;;;;;3.15;2.30;;;13.70;60.60;;;;;;4192697;28;20133;-59
2023/01/27 08:29:50;;;;;;;6.95;2.60;;;13.60;60.30;;;;;;4192667;28;20047;-59
2023/01/27 08:32:33;;;;;;;7.03;2.17;;;13.50;60.70;;;;;;4194410;28;20125;-59
2023/01/27 08:35:15;;;;;;;5.57;2.40;;;13.40;61.20;;;;;;4187982;28;20050;-59
2023/01/27 08:37:56;;;;;;;3.03;1.92;;;13.40;61.60;;;;;;4193920;28;20047;-59
2023/01/27 08:40:38;;;;;;;1.63;1.52;;;13.30;61.40;;;;;;4194319;28;20047;-58
2023/01/27 08:43:21;;;;;;;5.55;1.88;;;13.20;60.80;;;;;;4193060;28;20552;-58
2023/01/27 08:46:02;;;;;;;3.17;1.48;;;13.20;61.20;;;;;;4193553;28;20145;-59
2023/01/27 08:48:43;;;;;;;2.97;1.55;;;13.10;61.50;;;;;;4177201;28;20612;-59
2023/01/27 08:51:24;;;;;;;2.72;1.50;;;13.10;61.60;;;;;;4177307;28;20056;-58
2023/01/27 08:54:05;;;;;;;1.90;1.53;;;13.00;61.50;;;;;;4177386;28;20534;-59
2023/01/27 08:56:46;;;;;;;4.75;1.92;;;12.90;61.80;;;;;;4180383;28;20297;-59
2023/01/27 08:59:28;;;;;;;4.97;2.27;;;12.90;61.90;;;;;;4183636;28;20186;-59
2023/01/27 09:02:10;;;;;;;4.07;1.35;;;12.80;62.70;;;;;;4176452;28;20357;-59
2023/01/27 09:04:51;;;;;;;3.63;2.42;;;12.80;62.50;;;;;;4193204;28;20059;-59
2023/01/27 09:07:33;;;;;;;6.80;2.50;;;12.80;62.80;;;;;;4193546;28;20044;-59
2023/01/27 09:10:15;;;;;;;7.53;2.40;;;12.80;63.10;;;;;;4174098;28;20114;-59
2023/01/27 09:12:56;;;;;;;5.22;3.25;;;12.80;63.10;;;;;;4178595;28;20055;-59
2023/01/27 09:15:39;;;;;;;6.18;2.80;;;12.80;63.30;;;;;;4164729;28;20051;-59
2023/01/27 09:18:21;;;;;;;6.68;3.15;;;12.90;64.00;;;;;;4177989;28;20063;-60
2023/01/27 09:21:04;;;;;;;13.25;3.67;;;12.90;64.00;;;;;;4165908;28;20055;-59
2023/01/27 09:23:48;;;;;;;6.38;2.92;;;12.90;64.70;;;;;;4192733;28;20048;-59
2023/01/27 09:26:29;;;;;;;5.10;2.90;;;12.90;64.70;;;;;;4193051;28;20059;-59
2023/01/27 09:29:10;;;;;;;6.35;2.92;;;13.00;64.70;;;;;;4176381;28;20506;-59
2023/01/27 09:31:52;;;;;;;3.10;2.08;;;12.90;65.00;;;;;;4174591;28;20509;-59
2023/01/27 09:34:34;;;;;;;3.50;1.98;;;13.00;64.80;;;;;;4190810;28;20059;-59
2023/01/27 09:37:15;;;;;;;2.53;1.60;;;12.90;63.70;;;;;;4177256;28;20044;-59
2023/01/27 09:39:58;;;;;;;;;;;12.90;63.10;;;;;;4189113;28;20155;-59
2023/01/27 09:43:15;;;;;;;3.38;1.73;;;12.80;62.50;;;;;;4172614;28;19947;-58
2023/01/27 09:46:16;;;;;;;3.65;1.95;;;12.70;62.80;;;;;;4176548;28;20557;-58
2023/01/27 09:49:31;;;;;;;2.67;1.70;;;12.70;63.40;;;;;;4176022;28;20078;-58
2023/01/27 09:52:25;;;;;;;2.85;1.80;;;12.60;63.30;;;;;;4183328;28;20063;-58
2023/01/27 09:55:31;;;;;;;3.90;2.17;;;12.50;63.80;;;;;;4192497;28;20105;-58
2023/01/27 09:58:26;;;;;;;4.03;2.40;;;12.50;63.60;;;;;;4178788;28;20063;-58
2023/01/27 10:01:12;;;;;;;4.03;1.90;;;12.40;63.90;;;;;;4190458;28;20071;-59
2023/01/27 10:04:23;;;;;;;3.25;1.80;;;12.40;64.20;;;;;;4168552;28;20048;-58
2023/01/27 10:07:32;;;;;;;3.08;1.98;;;12.30;64.20;;;;;;4191544;28;20093;-58
2023/01/27 10:10:26;;;;;;;3.90;1.70;;;12.30;63.70;;;;;;4192268;28;20055;-59
2023/01/27 10:13:26;;;;;;;2.35;1.40;;;12.30;64.10;;;;;;4179546;28;20051;-59
2023/01/27 10:16:25;;;;;;;2.08;1.70;;;12.20;63.30;;;;;;4180017;28;20875;-59
2023/01/27 10:19:23;;;;;;;2.55;1.67;;;12.20;63.70;;;;;;4176722;28;20190;-59
2023/01/27 10:22:15;;;;;;;2.15;1.40;;;12.20;63.20;;;;;;4189430;28;20055;-58
2023/01/27 10:25:01;;;;;;;;;;;12.10;63.20;;;;;;4174392;28;20061;-59
2023/01/27 10:27:48;;;;;;;1.50;1.42;;;12.10;63.20;;;;;;4192272;28;19931;-59
2023/01/27 10:30:33;;;;;;;1.50;1.40;;;12.10;63.90;;;;;;4176035;28;20246;-59
2023/01/27 10:33:18;;;;;;;3.08;1.35;;;12.10;63.80;;;;;;4175826;28;20130;-59
2023/01/27 10:36:05;;;;;;;2.00;1.90;;;12.00;63.40;;;;;;4191767;28;20506;-58
2023/01/27 10:38:50;;;;;;;2.35;1.88;;;12.00;63.70;;;;;;4181714;28;20097;-59
2023/01/27 10:41:36;;;;;;;2.78;2.10;;;12.00;63.60;;;;;;4190678;28;20158;-58
2023/01/27 10:44:34;;;;;;;2.35;2.15;;;12.00;63.50;;;;;;4191982;28;20111;-58
2023/01/27 10:47:25;;;;;;;2.00;1.90;;;12.00;63.70;;;;;;4191770;28;20083;-58
2023/01/27 10:50:11;;;;;;;2.92;1.92;;;12.00;64.10;;;;;;4191854;28;20751;-67
2023/01/27 10:52:59;;;;;;;2.35;2.15;;;12.00;63.90;;;;;;4175476;28;20159;-67
2023/01/27 10:55:49;;;;;;;4.70;2.20;;;11.90;63.70;;;;;;4175136;28;20059;-66
2023/01/27 10:58:44;;;;;;;1.88;1.77;;;11.90;63.80;;;;;;4175449;28;20178;-65
2023/01/27 11:01:30;;;;;;;2.03;1.92;;;11.90;63.80;;;;;;4175471;28;20541;-66
2023/01/27 11:04:15;;;;;;;2.20;1.98;;;11.90;64.00;;;;;;4175798;28;20226;-67
2023/01/27 11:06:57;;;;;;;2.55;1.90;;;11.80;64.70;;;;;;4191891;28;20121;-66
2023/01/27 11:09:48;;;;;;;2.17;2.08;;;11.90;64.60;;;;;;4192195;28;20063;-66
2023/01/27 11:12:33;;;;;;;2.50;2.40;;;11.80;63.70;;;;;;4187619;28;20121;-67
2023/01/27 11:15:20;;;;;;;2.17;2.05;;;11.90;64.00;;;;;;4175289;28;20198;-66
2023/01/27 11:18:05;;;;;;;2.38;2.28;;;11.80;64.40;;;;;;4177982;28;20056;-69
2023/01/27 11:20:51;;;;;;;3.90;2.35;;;11.80;64.50;;;;;;4184877;28;20055;-70
2023/01/27 11:23:39;;;;;;;2.25;2.15;;;11.80;65.10;;;;;;4192833;28;20052;-70
2023/01/27 11:26:30;;;;;;;2.92;2.72;;;11.90;65.40;;;;;;4182120;28;20403;-69
2023/01/27 11:29:20;;;;;;;3.03;2.38;;;11.80;64.60;;;;;;4194627;28;20061;-62
2023/01/27 11:32:08;;;;;;;1.73;1.65;;;11.80;64.20;;;;;;4195003;28;20055;-70
2023/01/27 11:34:59;;;;;;;1.92;1.77;;;11.80;64.50;;;;;;4195162;28;20542;-71
2023/01/27 11:37:42;;;;;;;1.85;1.27;;;11.80;64.40;;;;;;4194750;28;20063;-69
2023/01/27 11:40:33;;;;;;;1.33;1.33;;;11.90;63.20;;;;;;4195359;28;20162;-70
2023/01/27 11:43:18;;;;;;;1.80;1.70;;;11.80;62.60;;;;;;4178624;28;20055;-70
2023/01/27 11:46:04;;;;;;;1.90;1.80;;;11.80;63.00;;;;;;4194203;28;20047;-70
2023/01/27 11:48:48;;;;;;;2.20;1.90;;;11.80;62.80;;;;;;4194786;28;20155;-70
2023/01/27 11:51:37;;;;;;;2.33;2.22;;;11.80;63.60;;;;;;4192737;28;20059;-70
2023/01/27 11:54:23;;;;;;;2.08;1.98;;;11.80;64.50;;;;;;4177999;28;20052;-71
2023/01/27 11:57:04;;;;;;;2.20;2.10;;;12.00;65.30;;;;;;4186889;28;20063;-70
2023/01/27 11:59:48;;;;;;;1.88;1.77;;;12.10;65.70;;;;;;4194195;28;20055;-70
2023/01/27 12:02:36;;;;;;;1.92;1.83;;;12.20;65.50;;;;;;4194683;28;20059;-70
2023/01/27 12:05:24;;;;;;;1.38;1.38;;;12.30;66.00;;;;;;4194603;28;20055;-71
2023/01/27 12:08:05;;;;;;;1.30;1.30;;;12.40;66.20;;;;;;4194608;28;20051;-70
2023/01/27 12:10:47;;;;;;;1.55;1.45;;;12.50;65.50;;;;;;4192949;28;20643;-71
2023/01/27 12:13:27;;;;;;;1.08;1.08;;;12.50;66.50;;;;;;4194270;28;20051;-71
2023/01/27 12:16:10;;;;;;;1.10;1.10;;;12.50;65.80;;;;;;4194291;28;20117;-71
2023/01/27 12:18:59;;;;;;;2.53;1.73;;;12.50;64.70;;;;;;4176838;28;20130;-71
2023/01/27 12:21:46;;;;;;;4.38;2.35;;;12.50;65.60;;;;;;4193884;28;20118;-71
2023/01/27 12:24:31;;;;;;;6.25;5.13;;;12.50;65.90;;;;;;4177149;28;20055;-71
2023/01/27 12:27:20;;;;;;;1.63;1.52;;;12.50;64.40;;;;;;4193915;28;20048;-71
2023/01/27 12:30:05;;;;;;;1.10;1.10;;;12.50;62.00;;;;;;4193940;28;20062;-71
2023/01/27 12:32:48;;;;;;;1.20;1.10;;;12.40;62.00;;;;;;4192160;28;20047;-71
2023/01/27 12:35:34;;;;;;;1.80;1.50;;;12.30;61.90;;;;;;4191487;28;20129;-70
2023/01/27 12:38:18;;;;;;;3.22;1.70;;;12.20;62.70;;;;;;4194183;28;20047;-70
2023/01/27 12:41:02;;;;;;;3.63;1.85;;;12.10;63.70;;;;;;4194141;28;20059;-71
2023/01/27 12:43:51;;;;;;;2.80;2.60;;;12.10;64.90;;;;;;4181080;28;20102;-70
2023/01/27 12:46:32;;;;;;;2.13;1.92;;;12.00;65.50;;;;;;4194064;28;20537;-69
2023/01/27 12:49:20;;;;;;;2.15;1.90;;;12.00;65.10;;;;;;4177139;28;20403;-70
2023/01/27 12:52:04;;;;;;;4.43;2.03;;;12.00;64.90;;;;;;4164603;28;20130;-70
2023/01/27 12:54:45;;;;;;;8.55;2.40;;;11.90;64.40;;;;;;4191794;28;20099;-69
2023/01/27 12:57:32;;;;;;;2.25;2.00;;;11.90;65.30;;;;;;4176108;28;20392;-69
2023/01/27 13:00:15;;;;;;;1.50;1.40;;;11.90;64.70;;;;;;4176783;28;20218;-69
2023/01/27 13:03:04;;;;;;;1.30;1.30;;;11.90;64.70;;;;;;4193021;28;20043;-70
2023/01/27 13:05:47;;;;;;;1.42;1.42;;;11.90;63.40;;;;;;4192602;28;20074;-69
2023/01/27 13:08:32;;;;;;;1.10;1.10;;;11.90;64.40;;;;;;4192311;28;20133;-70
2023/01/27 13:11:13;;;;;;;1.10;1.10;;;11.80;64.10;;;;;;4191913;28;20075;-71
2023/01/27 13:13:57;;;;;;;3.60;2.08;;;11.80;63.50;;;;;;4193306;28;20051;-70
2023/01/27 13:16:38;;;;;;;1.63;1.52;;;11.80;63.50;;;;;;4191785;28;20100;-70
2023/01/27 13:19:20;;;;;;;1.75;1.50;;;11.80;64.00;;;;;;4174057;28;20056;-70
2023/01/27 13:22:03;;;;;;;;;;;11.80;64.60;;;;;;4168084;28;20392;-70
2023/01/27 13:24:45;;;;;;;1.98;1.88;;;11.80;65.30;;;;;;4193474;28;19931;-70
2023/01/27 13:27:26;;;;;;;1.38;1.27;;;11.70;66.30;;;;;;4193381;28;20150;-70
2023/01/27 13:30:19;;;;;;;1.20;1.20;;;11.70;65.90;;;;;;4175854;28;20048;-71
2023/01/27 13:33:06;;;;;;;1.65;1.55;;;11.70;65.20;;;;;;4175975;28;20411;-70
2023/01/27 13:35:59;;;;;;;1.15;1.15;;;11.70;66.00;;;;;;4176212;28;20142;-70
2023/01/27 13:38:51;;;;;;;1.73;1.63;;;11.70;66.00;;;;;;4175531;28;20052;-70
2023/01/27 13:41:39;;;;;;;1.10;1.10;;;11.70;65.30;;;;;;4176003;28;20056;-71
2023/01/27 13:44:26;;;;;;;1.42;1.42;;;11.70;64.50;;;;;;4163236;28;20087;-71
2023/01/27 13:47:16;;;;;;;9.35;5.88;;;11.70;64.90;;;;;;4163308;28;20051;-71
2023/01/27 13:50:02;;;;;;;1.20;1.20;;;11.70;64.00;;;;;;4175969;28;20178;-71
2023/01/27 13:52:44;;;;;;;1.00;1.00;;;11.70;63.90;;;;;;4176486;28;20517;-70
2023/01/27 13:55:42;;;;;;;1.10;1.10;;;11.70;64.00;;;;;;4171959;28;20122;-71
2023/01/27 13:58:34;;;;;;;1.80;1.23;;;11.70;64.30;;;;;;4158869;28;20061;-71
2023/01/27 14:01:24;;;;;;;1.45;1.35;;;11.70;64.10;;;;;;4176295;28;20047;-69
2023/01/27 14:04:31;;;;;;;1.33;1.30;;;11.60;64.50;;;;;;4171638;28;20055;-71
2023/01/27 14:07:22;;;;;;;1.20;1.20;;;11.60;64.30;;;;;;4175236;28;20295;-69
2023/01/27 14:10:16;;;;;;;2.45;1.30;;;11.60;64.60;;;;;;4175667;28;20827;-70
2023/01/27 14:13:12;;;;;;;1.65;1.23;;;11.60;64.50;;;;;;4175186;28;20134;-70
2023/01/27 14:16:01;;;;;;;1.17;1.08;;;11.60;65.10;;;;;;4175827;28;20060;-70
2023/01/27 14:18:44;;;;;;;1.00;1.00;;;11.60;64.90;;;;;;4176031;28;20044;-68
2023/01/27 14:21:38;;;;;;;1.02;1.02;;;11.60;64.30;;;;;;4175844;28;20055;-68
2023/01/27 14:24:36;;;;;;;1.48;1.38;;;11.60;64.30;;;;;;4175219;28;20155;-69
2023/01/27 14:27:23;;;;;;;0.93;0.93;;;11.60;64.10;;;;;;4175733;28;20491;-68
2023/01/27 14:30:13;;;;;;;1.45;1.35;;;11.60;64.30;;;;;;4175626;28;20106;-69
2023/01/27 14:33:02;;;;;;;1.58;1.55;;;11.50;64.00;;;;;;4175774;28;20137;-69
2023/01/27 14:35:51;;;;;;;1.40;1.40;;;11.50;64.10;;;;;;4178487;28;20178;-69
2023/01/27 14:38:38;;;;;;;1.25;1.20;;;11.50;63.70;;;;;;4189922;28;20399;-69
2023/01/27 14:41:25;;;;;;;2.92;1.48;;;11.60;63.50;;;;;;4192182;28;20055;-70
2023/01/27 14:44:15;;;;;;;1.83;1.40;;;11.50;63.70;;;;;;4192017;28;20552;-70
2023/01/27 14:47:08;;;;;;;1.23;1.20;;;11.50;64.60;;;;;;4191158;28;20090;-69
2023/01/27 14:50:02;;;;;;;0.95;0.95;;;11.70;68.40;;;;;;4164967;28;20063;-68
2023/01/27 14:52:50;;;;;;;0.88;0.88;;;12.00;66.90;;;;;;4175563;28;20056;-70